createdAt,value
2019-01-17T00:00:55.023Z,4.50
2019-01-17T00:03:25.131Z,4.40
2019-01-17T00:06:01.185Z,4.50
2019-01-17T00:08:47.528Z,4.50
2019-01-17T00:11:23.393Z,4.50
2019-01-17T00:13:53.700Z,4.50
2019-01-17T00:16:23.791Z,4.50
2019-01-17T00:18:54.134Z,4.50
2019-01-17T00:21:36.030Z,4.50
2019-01-17T00:24:18.006Z,4.50
2019-01-17T00:26:50.735Z,4.50
2019-01-17T00:29:20.880Z,4.50
2019-01-17T00:31:51.192Z,4.50
2019-01-17T00:34:21.252Z,4.40
2019-01-17T00:36:54.340Z,4.40
2019-01-17T00:39:27.176Z,4.50
2019-01-17T00:42:06.292Z,4.50
2019-01-17T00:44:36.410Z,4.50
2019-01-17T00:47:12.460Z,4.50
2019-01-17T00:50:00.374Z,4.50
2019-01-17T00:52:46.496Z,4.50
2019-01-17T00:55:19.467Z,4.50
2019-01-17T00:57:49.540Z,4.50
2019-01-17T01:00:31.144Z,4.50
2019-01-17T01:03:17.470Z,4.50
2019-01-17T01:05:50.237Z,4.50
2019-01-17T01:08:23.075Z,4.50
2019-01-17T01:10:58.930Z,4.60
2019-01-17T01:13:31.975Z,4.50
2019-01-17T01:16:18.501Z,4.60
2019-01-17T01:18:48.573Z,4.60
2019-01-17T01:21:18.644Z,4.60
2019-01-17T01:23:48.715Z,4.60
2019-01-17T01:26:18.776Z,4.60
2019-01-17T01:29:04.838Z,4.60
2019-01-17T01:31:37.796Z,4.60
2019-01-17T01:34:16.865Z,4.60
2019-01-17T01:36:52.644Z,4.60
2019-01-17T01:39:28.209Z,4.60
2019-01-17T01:41:58.292Z,4.60
2019-01-17T01:44:31.064Z,4.60
2019-01-17T01:47:18.684Z,4.60
2019-01-17T01:49:51.424Z,4.60
2019-01-17T01:52:30.537Z,4.60
2019-01-17T01:54:58.952Z,4.60
2019-01-17T01:57:27.386Z,4.60
2019-01-17T01:59:55.826Z,4.60
2019-01-17T02:02:24.256Z,4.60
2019-01-17T02:04:52.688Z,4.60
2019-01-17T02:07:21.089Z,4.60
2019-01-17T02:09:49.523Z,4.60
2019-01-17T02:12:17.924Z,4.70
2019-01-17T02:14:46.433Z,4.70
2019-01-17T02:17:14.832Z,4.60
2019-01-17T02:19:43.268Z,4.60
2019-01-17T02:22:11.679Z,4.60
2019-01-17T02:24:40.123Z,4.60
2019-01-17T02:27:08.527Z,4.60
2019-01-17T02:29:36.955Z,4.60
2019-01-17T02:32:05.365Z,4.60
2019-01-17T02:34:34.036Z,4.60
2019-01-17T02:37:02.470Z,4.50
2019-01-17T02:39:30.895Z,4.50
2019-01-17T02:41:59.368Z,4.50
2019-01-17T02:44:27.807Z,4.50
2019-01-17T02:46:56.208Z,4.50
2019-01-17T02:49:24.652Z,4.50
2019-01-17T02:51:53.051Z,4.50
2019-01-17T02:54:21.492Z,4.50
2019-01-17T02:56:49.912Z,4.50
2019-01-17T02:59:18.352Z,4.50
2019-01-17T03:01:46.768Z,4.50
2019-01-17T03:04:15.192Z,4.50
2019-01-17T03:06:43.628Z,4.50
2019-01-17T03:09:12.030Z,4.50
2019-01-17T03:11:40.559Z,4.50
2019-01-17T03:14:08.957Z,4.50
2019-01-17T03:16:37.403Z,4.50
2019-01-17T03:19:05.886Z,4.50
2019-01-17T03:21:34.296Z,4.50
2019-01-17T03:24:02.724Z,4.40
2019-01-17T03:26:31.121Z,4.40
2019-01-17T03:28:59.551Z,4.40
2019-01-17T03:31:27.952Z,4.40
2019-01-17T03:33:56.390Z,4.30
2019-01-17T03:36:24.805Z,4.30
2019-01-17T03:38:53.240Z,4.30
2019-01-17T03:41:21.672Z,4.30
2019-01-17T03:43:50.075Z,4.30
2019-01-17T03:46:18.500Z,4.30
2019-01-17T03:48:46.896Z,4.30
2019-01-17T03:51:15.384Z,4.30
2019-01-17T03:53:43.784Z,4.30
2019-01-17T03:56:12.216Z,4.30
2019-01-17T03:58:40.622Z,4.30
2019-01-17T04:01:09.057Z,4.30
2019-01-17T04:03:37.472Z,4.30
2019-01-17T04:06:05.957Z,4.30
2019-01-17T04:08:34.664Z,4.30
2019-01-17T04:11:03.168Z,4.30
2019-01-17T04:13:31.583Z,4.30
2019-01-17T04:15:59.999Z,4.30
2019-01-17T04:18:28.460Z,4.30
2019-01-17T04:20:56.885Z,4.30
2019-01-17T04:23:25.308Z,4.30
2019-01-17T04:25:53.703Z,4.30
2019-01-17T04:28:22.120Z,4.30
2019-01-17T04:30:50.628Z,4.30
2019-01-17T04:33:19.034Z,4.30
2019-01-17T04:35:47.428Z,4.30
2019-01-17T04:38:15.864Z,4.30
2019-01-17T04:40:44.276Z,4.30
2019-01-17T04:43:12.713Z,4.30
2019-01-17T04:45:41.108Z,4.30
2019-01-17T04:48:09.539Z,4.30
2019-01-17T04:50:37.955Z,4.30
2019-01-17T04:53:06.365Z,4.30
2019-01-17T04:55:34.775Z,4.30
2019-01-17T04:58:03.243Z,4.30
2019-01-17T05:00:31.713Z,4.30
2019-01-17T05:03:00.140Z,4.30
2019-01-17T05:05:28.609Z,4.30
2019-01-17T05:07:57.015Z,4.30
2019-01-17T05:10:25.447Z,4.30
2019-01-17T05:12:53.870Z,4.30
2019-01-17T05:15:22.556Z,4.30
2019-01-17T05:17:50.956Z,4.30
2019-01-17T05:20:19.628Z,4.30
2019-01-17T05:22:48.044Z,4.30
2019-01-17T05:25:16.542Z,4.40
2019-01-17T05:27:45.028Z,4.40
2019-01-17T05:30:17.820Z,4.40
2019-01-17T05:32:46.308Z,4.40
2019-01-17T05:35:14.774Z,4.40
2019-01-17T05:37:43.433Z,4.40
2019-01-17T05:40:14.744Z,4.40
2019-01-17T05:42:43.202Z,4.40
2019-01-17T05:45:11.763Z,4.40
2019-01-17T05:47:40.421Z,4.50
2019-01-17T05:50:13.808Z,4.40
2019-01-17T05:52:42.295Z,4.40
2019-01-17T05:55:10.798Z,4.40
2019-01-17T05:57:39.215Z,4.40
2019-01-17T06:00:13.358Z,4.40
2019-01-17T06:02:41.772Z,4.50
2019-01-17T06:05:10.428Z,4.50
2019-01-17T06:07:38.849Z,4.50
2019-01-17T06:10:09.998Z,4.50
2019-01-17T06:12:38.437Z,4.50
2019-01-17T06:15:09.684Z,4.50
2019-01-17T06:17:38.162Z,4.50
2019-01-17T06:20:09.887Z,4.50
2019-01-17T06:22:38.278Z,4.50
2019-01-17T06:25:06.836Z,4.50
2019-01-17T06:27:35.253Z,4.50
2019-01-17T06:30:04.715Z,4.50
2019-01-17T06:32:33.126Z,4.50
2019-01-17T06:35:01.580Z,4.50
2019-01-17T06:37:30.005Z,4.50
2019-01-17T06:39:58.463Z,4.50
2019-01-17T06:42:26.880Z,4.50
2019-01-17T06:44:55.370Z,4.50
2019-01-17T06:47:24.027Z,4.50
2019-01-17T06:49:52.436Z,4.50
2019-01-17T06:52:20.867Z,4.50
2019-01-17T06:54:49.281Z,4.50
2019-01-17T06:57:17.680Z,4.50
2019-01-17T06:59:46.108Z,4.50
2019-01-17T07:02:14.511Z,4.50
2019-01-17T07:04:43.095Z,4.50
2019-01-17T07:07:11.560Z,4.50
2019-01-17T07:09:39.956Z,4.50
2019-01-17T07:12:08.375Z,4.50
2019-01-17T07:14:36.781Z,4.50
2019-01-17T07:17:05.219Z,4.50
2019-01-17T07:19:33.620Z,4.50
2019-01-17T07:22:02.040Z,4.50
2019-01-17T07:24:30.459Z,4.50
2019-01-17T07:26:58.872Z,4.50
2019-01-17T07:29:27.444Z,4.50
2019-01-17T07:31:56.161Z,4.50
2019-01-17T07:34:24.589Z,4.50
2019-01-17T07:36:53.024Z,4.50
2019-01-17T07:39:21.456Z,4.50
2019-01-17T07:41:49.853Z,4.50
2019-01-17T07:44:18.348Z,4.60
2019-01-17T07:46:46.831Z,4.50
2019-01-17T07:49:15.283Z,4.60
2019-01-17T07:51:43.736Z,4.60
2019-01-17T07:54:12.419Z,4.60
2019-01-17T07:56:40.832Z,4.60
2019-01-17T07:59:09.257Z,4.60
2019-01-17T08:01:37.687Z,4.60
2019-01-17T08:04:06.100Z,4.60
2019-01-17T08:06:34.528Z,4.60
2019-01-17T08:09:04.576Z,4.60
2019-01-17T08:11:32.984Z,4.70
2019-01-17T08:14:01.420Z,4.70
2019-01-17T08:16:29.857Z,4.70
2019-01-17T08:18:58.313Z,4.70
2019-01-17T08:21:26.769Z,4.70
2019-01-17T08:23:55.208Z,4.70
2019-01-17T08:26:23.652Z,4.70
2019-01-17T08:28:52.084Z,4.80
2019-01-17T08:31:20.515Z,4.80
2019-01-17T08:33:48.927Z,4.80
2019-01-17T08:36:17.349Z,4.80
2019-01-17T08:38:45.763Z,4.80
2019-01-17T08:41:14.210Z,4.80
2019-01-17T08:43:42.707Z,4.90
2019-01-17T08:46:11.108Z,4.90
2019-01-17T08:48:39.551Z,4.90
2019-01-17T08:51:07.956Z,4.90
2019-01-17T08:53:36.384Z,4.90
2019-01-17T08:56:05.053Z,4.90
2019-01-17T08:58:33.495Z,4.90
2019-01-17T09:01:02.182Z,4.90
2019-01-17T09:03:30.577Z,4.90
2019-01-17T09:05:59.016Z,4.90
2019-01-17T09:08:27.443Z,5.00
2019-01-17T09:10:55.855Z,5.00
2019-01-17T09:13:24.381Z,5.00
2019-01-17T09:15:52.860Z,5.10
2019-01-17T09:18:21.276Z,5.10
2019-01-17T09:20:49.942Z,5.10
2019-01-17T09:23:18.444Z,5.20
2019-01-17T09:25:46.923Z,5.20
2019-01-17T09:28:15.328Z,5.20
2019-01-17T09:30:43.760Z,5.20
2019-01-17T09:33:12.259Z,5.20
2019-01-17T09:35:40.948Z,5.30
2019-01-17T09:38:09.352Z,5.30
2019-01-17T09:40:37.779Z,5.30
2019-01-17T09:43:06.202Z,5.30
2019-01-17T09:45:34.640Z,5.30
2019-01-17T09:48:03.070Z,5.40
2019-01-17T09:50:31.508Z,5.40
2019-01-17T09:53:00.024Z,5.50
2019-01-17T09:55:28.425Z,5.60
2019-01-17T09:57:56.848Z,5.60
2019-01-17T10:00:27.195Z,5.60
2019-01-17T10:02:55.711Z,5.60
2019-01-17T10:05:24.255Z,5.60
2019-01-17T10:07:53.032Z,5.60
2019-01-17T10:10:23.960Z,5.60
2019-01-17T10:12:52.922Z,5.60
2019-01-17T10:15:33.299Z,5.60
2019-01-17T10:18:19.717Z,5.60
2019-01-17T10:21:06.032Z,5.60
2019-01-17T10:24:08.700Z,5.50
2019-01-17T10:26:42.954Z,5.50
2019-01-17T10:29:29.115Z,5.50
2019-01-17T10:32:00.617Z,5.50
2019-01-17T10:34:48.297Z,5.50
2019-01-17T10:37:46.613Z,5.60
2019-01-17T10:40:51.340Z,5.50
2019-01-17T10:43:48.115Z,5.60
2019-01-17T10:46:28.214Z,5.50
2019-01-17T10:49:23.411Z,5.60
2019-01-17T10:51:57.819Z,5.60
2019-01-17T10:54:35.388Z,5.70
2019-01-17T10:57:21.928Z,5.80
2019-01-17T10:59:53.423Z,5.90
2019-01-17T11:02:41.427Z,5.90
2019-01-17T11:05:20.245Z,5.90
2019-01-17T11:08:03.561Z,6.00
2019-01-17T11:11:10.767Z,6.00
2019-01-17T11:13:51.163Z,6.00
2019-01-17T11:16:28.411Z,6.00
2019-01-17T11:19:11.782Z,6.10
2019-01-17T11:21:49.251Z,6.10
2019-01-17T11:24:32.728Z,6.10
2019-01-17T11:27:18.415Z,6.10
2019-01-17T11:29:49.901Z,6.10
2019-01-17T11:32:37.655Z,6.10
2019-01-17T11:35:09.180Z,6.10
2019-01-17T11:37:46.415Z,6.10
2019-01-17T11:40:34.405Z,6.10
2019-01-17T11:43:11.385Z,6.10
2019-01-17T11:45:51.553Z,6.10
2019-01-17T11:48:31.697Z,6.10
2019-01-17T11:51:03.211Z,6.10
2019-01-17T11:53:43.551Z,6.10
2019-01-17T11:56:29.971Z,6.20
2019-01-17T11:59:09.784Z,6.20
2019-01-17T12:01:56.311Z,6.20
2019-01-17T12:04:34.280Z,6.20
2019-01-17T12:07:08.252Z,6.20
2019-01-17T12:09:38.116Z,6.30
2019-01-17T12:12:06.664Z,6.20
2019-01-17T12:14:35.102Z,6.20
2019-01-17T12:17:03.553Z,6.20
2019-01-17T12:19:32.084Z,6.20
2019-01-17T12:22:00.630Z,6.20
2019-01-17T12:24:29.029Z,6.10
2019-01-17T12:26:57.464Z,6.00
2019-01-17T12:29:25.889Z,6.00
2019-01-17T12:31:54.316Z,5.90
2019-01-17T12:34:22.765Z,5.90
2019-01-17T12:36:51.336Z,5.80
2019-01-17T12:39:19.772Z,5.80
2019-01-17T12:41:48.256Z,5.80
2019-01-17T12:44:16.684Z,5.80
2019-01-17T12:46:45.098Z,5.80
2019-01-17T12:49:13.588Z,5.80
2019-01-17T12:51:42.352Z,5.80
2019-01-17T12:54:10.793Z,5.80
2019-01-17T12:56:39.194Z,5.80
2019-01-17T12:59:07.887Z,5.90
2019-01-17T13:01:36.317Z,5.80
2019-01-17T13:04:05.055Z,5.80
2019-01-17T13:06:33.587Z,5.80
2019-01-17T13:09:02.003Z,5.80
2019-01-17T13:11:30.425Z,5.80
2019-01-17T13:13:59.065Z,5.80
2019-01-17T13:16:27.553Z,5.70
2019-01-17T13:18:55.976Z,5.70
2019-01-17T13:21:24.404Z,5.70
2019-01-17T13:23:52.836Z,5.70
2019-01-17T13:26:21.337Z,5.70
2019-01-17T13:28:49.771Z,5.60
2019-01-17T13:31:18.165Z,5.60
2019-01-17T13:33:46.573Z,5.60
2019-01-17T13:36:15.013Z,5.50
2019-01-17T13:38:43.416Z,5.50
2019-01-17T13:41:11.833Z,5.50
2019-01-17T13:43:40.253Z,5.50
2019-01-17T13:46:08.715Z,5.40
2019-01-17T13:48:37.195Z,5.50
2019-01-17T13:51:05.632Z,5.40
2019-01-17T13:53:34.047Z,5.40
2019-01-17T13:56:02.495Z,5.40
2019-01-17T13:58:30.900Z,5.40
2019-01-17T14:00:59.296Z,5.40
2019-01-17T14:03:27.789Z,5.40
2019-01-17T14:05:56.211Z,5.40
2019-01-17T14:08:24.611Z,5.40
2019-01-17T14:10:53.098Z,5.40
2019-01-17T14:13:21.492Z,5.30
2019-01-17T14:15:49.918Z,5.30
2019-01-17T14:18:18.423Z,5.30
2019-01-17T14:20:46.921Z,5.30
2019-01-17T14:23:15.318Z,5.30
2019-01-17T14:25:43.750Z,5.20
2019-01-17T14:28:12.180Z,5.20
2019-01-17T14:30:40.887Z,5.10
2019-01-17T14:33:10.475Z,5.10
2019-01-17T14:35:38.881Z,5.10
2019-01-17T14:38:07.328Z,5.10
2019-01-17T14:40:35.728Z,5.00
2019-01-17T14:43:04.247Z,5.00
2019-01-17T14:45:32.665Z,5.00
2019-01-17T14:48:01.108Z,5.00
2019-01-17T14:50:30.940Z,4.90
2019-01-17T14:52:59.379Z,4.90
2019-01-17T14:55:27.785Z,4.90
2019-01-17T14:57:56.307Z,4.90
2019-01-17T15:00:27.426Z,4.90
2019-01-17T15:02:55.847Z,4.80
2019-01-17T15:05:24.332Z,4.90
2019-01-17T15:07:52.864Z,4.80
2019-01-17T15:10:30.142Z,4.80
2019-01-17T15:12:58.694Z,4.80
2019-01-17T15:15:27.096Z,4.70
2019-01-17T15:17:55.524Z,4.70
2019-01-17T15:20:23.927Z,4.70
2019-01-17T15:22:52.935Z,4.70
2019-01-17T15:25:21.333Z,4.70
2019-01-17T15:27:49.764Z,4.60
2019-01-17T15:30:20.192Z,4.60
2019-01-17T15:32:49.058Z,4.60
2019-01-17T15:35:19.007Z,4.60
2019-01-17T15:37:47.522Z,4.50
2019-01-17T15:40:29.560Z,4.50
2019-01-17T15:42:57.975Z,4.50
2019-01-17T15:45:26.440Z,4.50
2019-01-17T15:47:54.931Z,4.50
2019-01-17T15:50:23.332Z,4.50
2019-01-17T15:52:51.748Z,4.50
2019-01-17T15:55:20.172Z,4.40
2019-01-17T15:57:48.564Z,4.40
2019-01-17T16:00:30.248Z,4.50
2019-01-17T16:02:58.655Z,4.40
2019-01-17T16:05:27.138Z,4.40
2019-01-17T16:07:55.531Z,4.40
2019-01-17T16:10:24.035Z,4.40
2019-01-17T16:12:52.452Z,4.40
2019-01-17T16:15:23.107Z,4.40
2019-01-17T16:17:51.574Z,4.30
2019-01-17T16:20:19.972Z,4.30
2019-01-17T16:22:48.536Z,4.20
2019-01-17T16:25:16.936Z,4.20
2019-01-17T16:27:45.391Z,4.10
2019-01-17T16:30:25.471Z,4.00
2019-01-17T16:32:53.911Z,4.00
2019-01-17T16:35:22.316Z,4.00
2019-01-17T16:37:50.860Z,3.90
2019-01-17T16:40:19.280Z,3.90
2019-01-17T16:42:47.775Z,3.90
2019-01-17T16:45:18.666Z,3.80
2019-01-17T16:47:47.073Z,3.80
2019-01-17T16:50:17.869Z,3.80
2019-01-17T16:52:46.281Z,3.80
2019-01-17T16:55:15.270Z,3.80
2019-01-17T16:57:48.895Z,3.80
2019-01-17T17:00:19.742Z,3.80
2019-01-17T17:02:48.168Z,3.80
2019-01-17T17:05:16.605Z,3.70
2019-01-17T17:07:45.027Z,3.80
2019-01-17T17:10:15.327Z,3.80
2019-01-17T17:12:43.755Z,3.80
2019-01-17T17:15:12.304Z,3.80
2019-01-17T17:17:40.728Z,3.80
2019-01-17T17:20:17.728Z,3.80
2019-01-17T17:22:46.224Z,3.80
2019-01-17T17:25:14.640Z,3.70
2019-01-17T17:27:43.195Z,3.70
2019-01-17T17:30:19.683Z,3.70
2019-01-17T17:32:48.119Z,3.70
2019-01-17T17:35:16.579Z,3.60
2019-01-17T17:37:44.980Z,3.60
2019-01-17T17:40:25.035Z,3.60
2019-01-17T17:42:53.532Z,3.60
2019-01-17T17:45:22.025Z,3.60
2019-01-17T17:47:50.459Z,3.50
2019-01-17T17:50:20.667Z,3.50
2019-01-17T17:52:49.106Z,3.50
2019-01-17T17:55:18.541Z,3.50
2019-01-17T17:57:46.974Z,3.50
2019-01-17T18:00:20.112Z,3.50
2019-01-17T18:02:48.965Z,3.50
2019-01-17T18:05:17.447Z,3.40
2019-01-17T18:07:45.871Z,3.50
2019-01-17T18:10:17.593Z,3.50
2019-01-17T18:12:45.999Z,3.50
2019-01-17T18:15:19.367Z,3.40
2019-01-17T18:17:48.067Z,3.40
2019-01-17T18:20:17.326Z,3.30
2019-01-17T18:22:45.810Z,3.30
2019-01-17T18:25:14.281Z,3.30
2019-01-17T18:27:42.705Z,3.20
2019-01-17T18:30:16.154Z,3.20
2019-01-17T18:32:44.551Z,3.10
2019-01-17T18:35:13.304Z,3.10
2019-01-17T18:37:41.731Z,3.00
2019-01-17T18:40:15.639Z,2.90
2019-01-17T18:42:44.137Z,2.80
2019-01-17T18:45:20.596Z,2.60
2019-01-17T18:47:49.130Z,2.50
2019-01-17T18:50:20.508Z,2.40
2019-01-17T18:52:49.060Z,2.30
2019-01-17T18:55:17.623Z,2.20
2019-01-17T18:57:46.109Z,2.10
2019-01-17T19:00:22.972Z,2.00
2019-01-17T19:02:51.972Z,2.00
2019-01-17T19:05:20.722Z,1.90
2019-01-17T19:07:49.183Z,1.90
2019-01-17T19:10:18.934Z,1.90
2019-01-17T19:12:47.411Z,1.90
2019-01-17T19:15:21.267Z,1.90
2019-01-17T19:17:49.673Z,1.90
2019-01-17T19:20:19.970Z,1.80
2019-01-17T19:22:48.709Z,1.80
2019-01-17T19:25:17.287Z,1.70
2019-01-17T19:27:45.683Z,1.70
2019-01-17T19:30:22.565Z,1.70
2019-01-17T19:32:51.117Z,1.70
2019-01-17T19:35:19.603Z,1.70
2019-01-17T19:37:48.080Z,1.70
2019-01-17T19:40:18.919Z,1.60
2019-01-17T19:42:47.404Z,1.60
2019-01-17T19:45:16.231Z,1.60
2019-01-17T19:47:44.725Z,1.60
2019-01-17T19:50:33.401Z,1.60
2019-01-17T19:53:01.874Z,1.50
2019-01-17T19:55:30.303Z,1.50
2019-01-17T19:57:58.742Z,1.50
2019-01-17T20:00:27.206Z,1.50
2019-01-17T20:02:55.745Z,1.50
2019-01-17T20:05:32.140Z,1.50
2019-01-17T20:08:00.613Z,1.50
2019-01-17T20:10:33.475Z,1.40
2019-01-17T20:13:01.972Z,1.40
2019-01-17T20:15:30.384Z,1.40
2019-01-17T20:17:59.618Z,1.30
2019-01-17T20:20:31.816Z,1.30
2019-01-17T20:22:58.300Z,1.20
2019-01-17T20:25:26.719Z,1.20
2019-01-17T20:27:55.142Z,1.20
2019-01-17T20:30:28.427Z,1.10
2019-01-17T20:32:58.600Z,1.10
2019-01-17T20:35:27.065Z,1.10
2019-01-17T20:37:55.459Z,1.10
2019-01-17T20:40:24.943Z,1.10
2019-01-17T20:42:53.675Z,1.00
2019-01-17T20:45:22.468Z,1.00
2019-01-17T20:47:51.121Z,1.00
2019-01-17T20:50:24.825Z,1.00
2019-01-17T20:52:53.223Z,0.90
2019-01-17T20:55:21.712Z,0.90
2019-01-17T20:57:50.684Z,0.90
2019-01-17T21:00:41.365Z,0.90
2019-01-17T21:03:11.368Z,0.80
2019-01-17T21:05:39.796Z,0.80
2019-01-17T21:08:08.283Z,0.70
2019-01-17T21:10:36.695Z,0.70
2019-01-17T21:13:05.123Z,0.70
2019-01-17T21:15:33.551Z,0.70
2019-01-17T21:18:01.988Z,0.70
2019-01-17T21:20:30.419Z,0.70
2019-01-17T21:22:58.815Z,0.60
2019-01-17T21:25:27.240Z,0.60
2019-01-17T21:27:55.660Z,0.60
2019-01-17T21:30:25.628Z,0.60
2019-01-17T21:32:54.100Z,0.60
2019-01-17T21:35:22.614Z,0.60
2019-01-17T21:37:51.244Z,0.60
2019-01-17T21:40:21.218Z,0.60
2019-01-17T21:42:49.616Z,0.60
2019-01-17T21:45:18.862Z,0.60
2019-01-17T21:47:47.529Z,0.50
2019-01-17T21:50:19.016Z,0.60
2019-01-17T21:52:47.408Z,0.60
2019-01-17T21:55:15.827Z,0.50
2019-01-17T21:57:44.339Z,0.60
2019-01-17T22:00:29.562Z,0.60
2019-01-17T22:02:57.993Z,0.60
2019-01-17T22:05:26.392Z,0.60
2019-01-17T22:07:54.814Z,0.50
2019-01-17T22:10:23.605Z,0.50
2019-01-17T22:12:52.097Z,0.50
2019-01-17T22:15:25.227Z,0.50
2019-01-17T22:17:54.393Z,0.50
2019-01-17T22:20:22.965Z,0.50
2019-01-17T22:22:51.434Z,0.50
2019-01-17T22:25:20.912Z,0.50
2019-01-17T22:27:51.799Z,0.50
2019-01-17T22:30:25.947Z,0.50
2019-01-17T22:32:54.364Z,0.50
2019-01-17T22:35:22.927Z,0.50
2019-01-17T22:37:51.362Z,0.50
2019-01-17T22:40:19.928Z,0.50
2019-01-17T22:42:48.348Z,0.50
2019-01-17T22:45:28.632Z,0.40
2019-01-17T22:47:57.051Z,0.40
2019-01-17T22:50:25.535Z,0.30
2019-01-17T22:52:54.067Z,0.30
2019-01-17T22:55:22.746Z,0.30
2019-01-17T22:57:51.149Z,0.30
2019-01-17T23:00:50.864Z,0.30
2019-01-17T23:03:21.877Z,0.30
2019-01-17T23:05:50.359Z,0.20
2019-01-17T23:08:18.746Z,0.20
2019-01-17T23:10:47.409Z,0.20
2019-01-17T23:13:15.891Z,0.20
2019-01-17T23:15:44.432Z,0.10
2019-01-17T23:18:12.866Z,0.10
2019-01-17T23:20:41.270Z,0.00
2019-01-17T23:23:10.759Z,0.00
2019-01-17T23:25:39.173Z,0.00
2019-01-17T23:28:07.575Z,-0.10
2019-01-17T23:30:36.239Z,-0.10
2019-01-17T23:33:04.807Z,-0.20
2019-01-17T23:35:33.299Z,-0.30
2019-01-17T23:38:01.735Z,-0.30
2019-01-17T23:40:30.215Z,-0.30
2019-01-17T23:42:58.644Z,-0.40
2019-01-17T23:45:27.039Z,-0.40
2019-01-17T23:47:55.471Z,-0.40
2019-01-17T23:50:23.886Z,-0.40
2019-01-17T23:52:52.316Z,-0.50
2019-01-17T23:55:20.744Z,-0.50
2019-01-17T23:57:49.152Z,-0.50
